Time;durP1;ratioP1;P1;durP2;ratioP2;P2;SDS_P1;SDS_P2;PMS_P1;PMS_P2;Temp;Humidity;BMP_temperature;BMP_pressure;BME280_temperature;BME280_humidity;BME280_pressure;Samples;Min_cycle;Max_cycle;Signal;HPM_P1;HPM_P2
2023/01/25 00:00:37;;;;;;;;;;;;;;;14.32;36.85;100064.69;5045752;28;19933;-88
2023/01/25 00:03:03;;;;;;;;;;;;;;;15.61;34.58;100066.38;5047726;28;19924;-88
2023/01/25 00:05:29;;;;;;;;;;;;;;;15.30;34.57;100062.16;5049340;28;20011;-87
2023/01/25 00:07:55;;;;;;;;;;;;;;;16.24;33.23;100065.50;5049198;28;20449;-88
2023/01/25 00:10:21;;;;;;;;;;;;;;;16.18;32.91;100055.75;5051122;28;20388;-88
2023/01/25 00:12:47;;;;;;;;;;;;;;;17.38;31.61;100045.78;5057046;28;19921;-89
2023/01/25 00:15:13;;;;;;;;;;;;;;;18.23;29.93;100038.44;5047145;28;19929;-86
2023/01/25 00:17:39;;;;;;;;;;;;;;;17.86;30.63;100046.75;5046374;28;19917;-87
2023/01/25 00:20:05;;;;;;;;;;;;;;;19.33;28.52;100040.69;5043518;28;20016;-88
2023/01/25 00:22:32;;;;;;;;;;;;;;;17.92;30.10;100050.13;5047364;28;20379;-88
2023/01/25 00:24:58;;;;;;;;;;;;;;;19.39;28.23;100046.84;5048701;28;19924;-88
2023/01/25 00:27:25;;;;;;;;;;;;;;;19.13;28.32;100052.84;5048709;28;20024;-89
2023/01/25 00:29:51;;;;;;;;;;;;;;;20.08;26.83;100044.34;5045734;28;19917;-88
2023/01/25 00:32:20;;;;;;;;;;;;;;;20.33;26.17;100042.19;5051938;28;19925;-89
2023/01/25 00:34:47;;;;;;;;;;;;;;;20.58;25.73;100035.25;5050950;28;20319;-88
2023/01/25 00:37:19;;;;;;;;;;;;;;;19.78;27.00;100043.97;5049306;28;19916;-88
2023/01/25 00:39:45;;;;;;;;;;;;;;;20.03;26.83;100044.59;5049817;28;19927;-88
2023/01/25 00:42:12;;;;;;;;;;;;;;;20.78;26.01;100033.28;5052717;28;20365;-88
2023/01/25 00:44:38;;;;;;;;;;;;;;;19.78;27.19;100049.53;5047440;28;19929;-88
2023/01/25 00:47:05;;;;;;;;;;;;;;;20.95;26.15;100030.91;5052937;28;19912;-89
2023/01/25 00:49:32;;;;;;;;;;;;;;;22.00;24.82;100040.63;5050527;28;20003;-88
2023/01/25 00:51:58;;;;;;;;;;;;;;;21.97;23.88;100032.97;5052607;28;20016;-88
2023/01/25 00:54:24;;;;;;;;;;;;;;;22.21;23.88;100033.78;5048230;28;19921;-88
2023/01/25 00:56:55;;;;;;;;;;;;;;;22.46;24.30;100023.78;5052080;28;19921;-88
2023/01/25 00:59:22;;;;;;;;;;;;;;;22.89;23.43;100034.47;5051854;28;19978;-88
2023/01/25 01:01:48;;;;;;;;;;;;;;;23.07;23.20;100017.88;5052554;28;19952;-88
2023/01/25 01:04:14;;;;;;;;;;;;;;;23.22;22.69;100014.88;5050650;28;20007;-88
2023/01/25 01:06:41;;;;;;;;;;;;;;;23.32;22.75;100007.78;5040933;28;20395;-88
2023/01/25 01:09:12;;;;;;;;;;;;;;;23.18;22.70;100008.41;5048184;28;19921;-86
2023/01/25 01:11:38;;;;;;;;;;;;;;;22.89;23.15;100011.25;5052361;28;19972;-86
2023/01/25 01:14:04;;;;;;;;;;;;;;;22.75;23.17;100013.84;5051266;28;19990;-86
2023/01/25 01:16:30;;;;;;;;;;;;;;;22.85;23.67;100008.38;5047172;28;20074;-88
2023/01/25 01:18:56;;;;;;;;;;;;;;;22.98;23.02;99994.94;5044032;28;19921;-87
2023/01/25 01:21:23;;;;;;;;;;;;;;;21.29;24.78;99995.69;5047438;28;19925;-86
2023/01/25 01:23:49;;;;;;;;;;;;;;;22.20;24.02;99992.97;5050864;28;19921;-87
2023/01/25 01:26:15;;;;;;;;;;;;;;;22.35;23.75;99980.84;5052449;28;19927;-86
2023/01/25 01:28:41;;;;;;;;;;;;;;;22.39;23.81;99984.47;5043608;28;19921;-86
2023/01/25 01:31:10;;;;;;;;;;;;;;;22.25;24.11;99973.88;5044312;28;20004;-86
2023/01/25 01:33:36;;;;;;;;;;;;;;;22.24;23.64;99977.06;5050987;28;19924;-87
2023/01/25 01:36:12;;;;;;;;;;;;;;;22.51;23.91;99973.88;5051753;28;19928;-87
2023/01/25 01:38:38;;;;;;;;;;;;;;;21.76;24.43;99968.25;5041235;28;20364;-87
2023/01/25 01:41:05;;;;;;;;;;;;;;;21.72;24.69;99959.00;5048188;28;19928;-87
2023/01/25 01:43:31;;;;;;;;;;;;;;;21.82;24.11;99949.97;5044944;28;20380;-87
2023/01/25 01:45:59;;;;;;;;;;;;;;;22.40;24.14;99936.53;5041557;28;19921;-87
2023/01/25 01:48:25;;;;;;;;;;;;;;;22.61;23.49;99936.84;5046745;28;19921;-87
2023/01/25 01:50:54;;;;;;;;;;;;;;;22.22;23.66;99931.88;5039500;28;19928;-87
2023/01/25 01:53:21;;;;;;;;;;;;;;;21.64;24.53;99936.88;5041756;28;19921;-87
2023/01/25 01:55:47;;;;;;;;;;;;;;;20.80;25.48;99938.81;5050333;28;19924;-87
2023/01/25 01:58:13;;;;;;;;;;;;;;;21.22;25.04;99929.34;5049628;28;19935;-87
2023/01/25 02:00:40;;;;;;;;;;;;;;;22.00;24.00;99925.13;5047445;28;19920;-87
2023/01/25 02:03:08;;;;;;;;;;;;;;;21.50;24.76;99934.63;5042873;28;19976;-87
2023/01/25 02:05:45;;;;;;;;;;;;;;;20.47;26.10;99919.75;5045046;28;19952;-87
2023/01/25 02:08:13;;;;;;;;;;;;;;;20.60;25.89;99927.66;5043412;28;20342;-87
2023/01/25 02:10:40;;;;;;;;;;;;;;;20.84;25.56;99926.53;5058980;28;19947;-87
2023/01/25 02:13:07;;;;;;;;;;;;;;;20.77;25.60;99915.22;5049277;28;20023;-87
2023/01/25 02:15:37;;;;;;;;;;;;;;;21.35;25.20;99924.38;5047654;28;19920;-87
2023/01/25 02:18:03;;;;;;;;;;;;;;;22.02;24.24;99915.19;5042317;28;20340;-87
2023/01/25 02:20:37;;;;;;;;;;;;;;;22.86;23.58;99914.78;5044923;28;20088;-87
2023/01/25 02:23:06;;;;;;;;;;;;;;;23.10;22.96;99921.88;5051954;28;19933;-87
2023/01/25 02:25:32;;;;;;;;;;;;;;;23.56;23.09;99917.56;5042296;28;19927;-88
2023/01/25 02:28:02;;;;;;;;;;;;;;;23.26;22.38;99914.03;5047739;28;19921;-88
2023/01/25 02:30:28;;;;;;;;;;;;;;;22.97;22.62;99914.88;5051338;28;20015;-88
2023/01/25 02:32:54;;;;;;;;;;;;;;;22.84;22.82;99907.94;5053987;28;19928;-88
2023/01/25 02:35:21;;;;;;;;;;;;;;;22.80;22.92;99921.88;5052034;28;20381;-87
2023/01/25 02:37:48;;;;;;;;;;;;;;;22.32;23.58;99920.81;5055062;28;19928;-88
2023/01/25 02:40:14;;;;;;;;;;;;;;;21.98;24.01;99922.69;5053147;28;19978;-88
2023/01/25 02:42:41;;;;;;;;;;;;;;;21.91;24.24;99922.59;5054265;28;19974;-88
2023/01/25 02:45:10;;;;;;;;;;;;;;;21.99;23.95;99923.50;5055203;28;20305;-87
2023/01/25 02:47:36;;;;;;;;;;;;;;;22.48;24.02;99915.84;5056332;28;19917;-88
2023/01/25 02:50:02;;;;;;;;;;;;;;;23.20;23.29;99910.75;5053172;28;19921;-88
2023/01/25 02:52:28;;;;;;;;;;;;;;;23.60;22.45;99918.41;5051897;28;19921;-88
2023/01/25 02:54:54;;;;;;;;;;;;;;;23.19;22.61;99916.75;5053222;28;19932;-88
2023/01/25 02:57:20;;;;;;;;;;;;;;;22.08;24.07;99909.28;5052905;28;19924;-88
2023/01/25 02:59:46;;;;;;;;;;;;;;;22.51;23.91;99915.09;5054118;28;19921;-88
2023/01/25 03:02:13;;;;;;;;;;;;;;;22.71;23.69;99912.97;5052957;28;20342;-88
2023/01/25 03:04:39;;;;;;;;;;;;;;;22.88;22.98;99908.78;5053021;28;19917;-88
2023/01/25 03:07:05;;;;;;;;;;;;;;;21.90;24.25;99914.56;5049478;28;19925;-88
2023/01/25 03:09:31;;;;;;;;;;;;;;;21.41;24.79;99914.50;5041283;28;19917;-88
2023/01/25 03:11:57;;;;;;;;;;;;;;;21.76;24.29;99914.31;5051115;28;19929;-88
2023/01/25 03:14:23;;;;;;;;;;;;;;;22.14;24.05;99904.97;5053561;28;20019;-88
2023/01/25 03:16:49;;;;;;;;;;;;;;;22.66;24.28;99902.13;5052315;28;20395;-88
2023/01/25 03:19:15;;;;;;;;;;;;;;;23.06;22.45;99907.78;5051917;28;20019;-88
2023/01/25 03:21:41;;;;;;;;;;;;;;;22.90;22.92;99906.41;5051724;28;19996;-88
2023/01/25 03:24:08;;;;;;;;;;;;;;;23.03;22.82;99905.78;5052599;28;19928;-88
2023/01/25 03:27:09;;;;;;;;;;;;;;;22.24;23.79;99909.91;5052355;28;20019;-88
2023/01/25 03:29:20;;;;;;;;;;;;;;;21.34;24.82;99908.78;5053026;28;19946;-88
2023/01/25 03:31:46;;;;;;;;;;;;;;;22.05;24.37;99898.84;5052198;28;20335;-88
2023/01/25 03:34:12;;;;;;;;;;;;;;;22.27;23.54;99893.16;5054804;28;20363;-88
2023/01/25 03:36:38;;;;;;;;;;;;;;;22.40;23.13;99896.56;5049415;28;19964;-88
2023/01/25 03:39:04;;;;;;;;;;;;;;;22.39;23.79;99895.72;5054137;28;20400;-88
2023/01/25 03:41:30;;;;;;;;;;;;;;;22.16;23.63;99910.97;5053190;28;19928;-88
2023/01/25 03:43:56;;;;;;;;;;;;;;;21.93;24.05;99897.06;5046499;28;19917;-88
2023/01/25 03:46:22;;;;;;;;;;;;;;;22.37;23.87;99898.09;5052418;28;19920;-88
2023/01/25 03:48:49;;;;;;;;;;;;;;;22.46;23.58;99898.63;5054143;28;19928;-88
2023/01/25 03:51:15;;;;;;;;;;;;;;;22.41;23.57;99893.34;5053071;28;19929;-88
2023/01/25 03:53:41;;;;;;;;;;;;;;;22.56;24.01;99903.56;5053523;28;20292;-88
2023/01/25 03:56:08;;;;;;;;;;;;;;;22.90;23.48;99898.81;5049571;28;19921;-88
2023/01/25 03:58:36;;;;;;;;;;;;;;;22.31;23.53;99896.81;5052222;28;19925;-88
2023/01/25 04:01:02;;;;;;;;;;;;;;;22.41;24.47;99896.16;5051065;28;19967;-87
2023/01/25 04:03:29;;;;;;;;;;;;;;;22.65;23.62;99892.91;5052743;28;19921;-88
2023/01/25 04:05:55;;;;;;;;;;;;;;;22.42;23.27;99894.19;5051051;28;19975;-88
2023/01/25 04:08:22;;;;;;;;;;;;;;;22.12;23.63;99894.16;5048697;28;19927;-88
2023/01/25 04:10:51;;;;;;;;;;;;;;;22.14;24.26;99880.59;5062629;28;19990;-88
2023/01/25 04:13:18;;;;;;;;;;;;;;;22.57;23.91;99893.97;5053975;28;19921;-88
2023/01/25 04:15:44;;;;;;;;;;;;;;;23.24;22.93;99883.56;5050422;28;19925;-88
2023/01/25 04:18:10;;;;;;;;;;;;;;;23.27;23.35;99884.78;5046086;28;19921;-88
2023/01/25 04:20:36;;;;;;;;;;;;;;;23.63;22.53;99875.56;5052554;28;20430;-87
2023/01/25 04:23:03;;;;;;;;;;;;;;;23.94;22.44;99874.22;5054305;28;20372;-87
2023/01/25 04:25:29;;;;;;;;;;;;;;;24.00;21.74;99870.63;5047465;28;19928;-87
2023/01/25 04:27:55;;;;;;;;;;;;;;;23.85;22.07;99865.31;5052315;28;19921;-87
2023/01/25 04:30:21;;;;;;;;;;;;;;;23.68;22.51;99860.38;5052043;28;20474;-87
2023/01/25 04:32:47;;;;;;;;;;;;;;;23.76;22.70;99857.22;5052085;28;19982;-87
2023/01/25 04:35:13;;;;;;;;;;;;;;;23.84;22.11;99856.09;5050820;28;19917;-88
2023/01/25 04:37:39;;;;;;;;;;;;;;;23.84;22.16;99849.69;5052121;28;20360;-87
2023/01/25 04:40:05;;;;;;;;;;;;;;;23.45;22.21;99848.56;5052205;28;19921;-87
2023/01/25 04:42:31;;;;;;;;;;;;;;;22.77;22.90;99849.03;5052530;28;19920;-87
2023/01/25 04:44:57;;;;;;;;;;;;;;;21.45;24.68;99848.31;5053598;28;20330;-87
2023/01/25 04:47:23;;;;;;;;;;;;;;;21.72;24.11;99849.16;5051108;28;19924;-88
2023/01/25 04:49:49;;;;;;;;;;;;;;;21.76;24.06;99847.22;5053170;28;19921;-87
2023/01/25 04:52:15;;;;;;;;;;;;;;;22.10;23.59;99853.75;5046393;28;19946;-87
2023/01/25 04:54:41;;;;;;;;;;;;;;;22.64;24.04;99856.88;5046325;28;19957;-87
2023/01/25 04:57:07;;;;;;;;;;;;;;;22.98;22.54;99857.69;5052152;28;19924;-87
2023/01/25 04:59:33;;;;;;;;;;;;;;;23.19;22.59;99849.50;5050348;28;19929;-87
2023/01/25 05:01:59;;;;;;;;;;;;;;;23.21;22.44;99850.72;5050683;28;20343;-88
2023/01/25 05:04:25;;;;;;;;;;;;;;;23.04;22.80;99847.72;5056049;28;20352;-88
2023/01/25 05:06:51;;;;;;;;;;;;;;;22.83;22.61;99844.69;5060318;28;19917;-87
2023/01/25 05:09:17;;;;;;;;;;;;;;;22.90;22.52;99834.38;5047401;28;19974;-88
2023/01/25 05:11:43;;;;;;;;;;;;;;;22.98;22.53;99838.88;5042305;28;20832;-89
2023/01/25 05:14:09;;;;;;;;;;;;;;;22.87;23.00;99848.38;5046060;28;19920;-88
2023/01/25 05:16:35;;;;;;;;;;;;;;;22.87;22.35;99843.56;5043044;28;19917;-88
2023/01/25 05:19:01;;;;;;;;;;;;;;;22.36;23.06;99845.28;5040843;28;19921;-88
2023/01/25 05:24:12;;;;;;;;;;;;;;;22.52;23.25;99843.13;5037389;28;19924;-90
2023/01/25 05:29:23;;;;;;;;;;;;;;;22.58;22.80;99844.41;5045928;28;20280;-89
2023/01/25 05:31:49;;;;;;;;;;;;;;;22.18;23.72;99833.88;5041276;28;20387;-88
2023/01/25 05:34:15;;;;;;;;;;;;;;;22.27;23.23;99839.19;5052692;28;20011;-87
2023/01/25 05:36:41;;;;;;;;;;;;;;;21.70;23.85;99831.94;5042485;28;19939;-88
2023/01/25 05:39:07;;;;;;;;;;;;;;;20.29;25.13;99837.66;5044227;28;20287;-87
2023/01/25 05:41:33;;;;;;;;;;;;;;;19.24;27.01;99845.09;5047938;28;19917;-90
2023/01/25 05:43:59;;;;;;;;;;;;;;;20.35;25.62;99839.78;5049675;28;20350;-88
2023/01/25 05:46:28;;;;;;;;;;;;;;;20.96;24.56;99837.03;5044983;28;19916;-87
2023/01/25 05:48:54;;;;;;;;;;;;;;;21.25;24.41;99836.41;5055899;28;19929;-87
2023/01/25 05:51:20;;;;;;;;;;;;;;;21.82;23.48;99829.72;5044274;28;20411;-87
2023/01/25 05:53:46;;;;;;;;;;;;;;;22.31;23.22;99829.66;5049316;28;20276;-87
2023/01/25 05:56:12;;;;;;;;;;;;;;;22.18;23.11;99833.06;5044151;28;19924;-83
2023/01/25 05:58:38;;;;;;;;;;;;;;;21.81;24.02;99827.31;5046517;28;19927;-91
2023/01/25 06:01:06;;;;;;;;;;;;;;;21.84;23.76;99821.03;5046036;28;19931;-87
2023/01/25 06:03:32;;;;;;;;;;;;;;;22.24;23.17;99831.56;5036866;28;19964;-87
2023/01/25 06:06:03;;;;;;;;;;;;;;;21.36;24.36;99822.59;5049483;28;19943;-86
2023/01/25 06:08:29;;;;;;;;;;;;;;;20.36;25.41;99830.28;5049790;28;20310;-87
2023/01/25 06:10:55;;;;;;;;;;;;;;;21.10;24.47;99831.75;5076123;28;19916;-86
2023/01/25 06:13:22;;;;;;;;;;;;;;;21.35;24.20;99827.38;5076074;28;19916;-86
2023/01/25 06:15:52;;;;;;;;;;;;;;;21.99;23.64;99828.41;5075588;28;19916;-86
2023/01/25 06:18:18;;;;;;;;;;;;;;;22.12;23.43;99837.41;5037127;28;20008;-85
2023/01/25 06:20:44;;;;;;;;;;;;;;;22.03;23.23;99832.09;5037620;28;19956;-86
2023/01/25 06:23:10;;;;;;;;;;;;;;;21.93;23.38;99836.34;5055376;28;19994;-86
2023/01/25 06:25:36;;;;;;;;;;;;;;;22.51;22.92;99833.09;5056496;28;19956;-86
2023/01/25 06:28:02;;;;;;;;;;;;;;;22.92;22.63;99832.00;5056799;28;19956;-86
2023/01/25 06:30:28;;;;;;;;;;;;;;;22.86;22.26;99833.56;5057331;28;19916;-86
2023/01/25 06:32:56;;;;;;;;;;;;;;;22.85;22.51;99829.13;5055537;28;19936;-86
2023/01/25 06:35:22;;;;;;;;;;;;;;;22.45;22.80;99829.81;5035657;28;19979;-86
2023/01/25 06:37:48;;;;;;;;;;;;;;;22.30;23.12;99828.06;5037027;28;19978;-86
2023/01/25 06:40:14;;;;;;;;;;;;;;;22.71;23.42;99828.97;5055035;28;20425;-86
2023/01/25 06:42:40;;;;;;;;;;;;;;;22.98;22.63;99818.47;5056745;28;20441;-86
2023/01/25 06:45:06;;;;;;;;;;;;;;;22.85;22.72;99817.16;5056504;28;19917;-86
2023/01/25 06:47:33;;;;;;;;;;;;;;;22.22;23.11;99811.56;5056306;28;19924;-86
2023/01/25 06:49:59;;;;;;;;;;;;;;;22.07;23.84;99816.16;5054863;28;19925;-86
2023/01/25 06:52:25;;;;;;;;;;;;;;;22.57;23.80;99811.97;5036641;28;20365;-86
2023/01/25 06:54:51;;;;;;;;;;;;;;;23.23;22.67;99809.09;5036865;28;20402;-86
2023/01/25 06:57:17;;;;;;;;;;;;;;;23.74;22.31;99806.34;5055376;28;19991;-86
2023/01/25 06:59:43;;;;;;;;;;;;;;;24.08;21.42;99787.34;5056657;28;19917;-86
2023/01/25 07:02:14;;;;;;;;;;;;;;;24.22;22.06;99798.63;5055632;28;19925;-86
2023/01/25 07:04:40;;;;;;;;;;;;;;;24.08;21.31;99797.75;5055601;28;19970;-86
2023/01/25 07:07:09;;;;;;;;;;;;;;;23.54;21.70;99807.81;5053501;28;19960;-86
2023/01/25 07:09:35;;;;;;;;;;;;;;;22.14;23.46;99807.84;5050104;28;20371;-86
2023/01/25 07:12:03;;;;;;;;;;;;;;;21.71;24.16;99805.59;5055742;28;19943;-86
2023/01/25 07:14:29;;;;;;;;;;;;;;;22.38;24.06;99807.34;5056251;28;19917;-86
2023/01/25 07:16:55;;;;;;;;;;;;;;;22.98;22.92;99813.69;5055625;28;20394;-86
2023/01/25 07:19:21;;;;;;;;;;;;;;;23.51;22.17;99797.34;5054365;28;19916;-86
2023/01/25 07:21:48;;;;;;;;;;;;;;;23.13;22.40;99804.19;5036297;28;19931;-86
2023/01/25 07:24:15;;;;;;;;;;;;;;;22.46;23.42;99799.84;5036714;28;20405;-87
2023/01/25 07:26:41;;;;;;;;;;;;;;;22.45;23.20;99801.84;5035992;28;20269;-86
2023/01/25 07:29:11;;;;;;;;;;;;;;;22.66;23.17;99804.91;5035986;28;19917;-87
2023/01/25 07:31:37;;;;;;;;;;;;;;;22.80;23.30;99795.06;5055129;28;19925;-86
2023/01/25 07:34:03;;;;;;;;;;;;;;;23.11;22.75;99791.75;5047110;28;19927;-86
2023/01/25 07:36:30;;;;;;;;;;;;;;;23.57;22.72;99787.38;5053784;28;19924;-86
2023/01/25 07:38:56;;;;;;;;;;;;;;;23.89;21.66;99785.59;5055482;28;19917;-87
2023/01/25 07:41:23;;;;;;;;;;;;;;;23.26;22.43;99785.09;5054779;28;19924;-87
2023/01/25 07:43:50;;;;;;;;;;;;;;;23.19;22.95;99791.47;5055834;28;19917;-86
2023/01/25 07:46:16;;;;;;;;;;;;;;;23.59;22.48;99790.63;5054925;28;19967;-86
2023/01/25 07:48:50;;;;;;;;;;;;;;;23.55;22.50;99789.75;5055220;28;19921;-86
2023/01/25 07:51:23;;;;;;;;;;;;;;;23.40;22.18;99778.84;5055569;28;19923;-87
2023/01/25 07:53:52;;;;;;;;;;;;;;;23.21;22.59;99772.25;5055539;28;20283;-87
2023/01/25 07:56:19;;;;;;;;;;;;;;;22.10;24.09;99778.22;5054517;28;19924;-86
2023/01/25 07:58:45;;;;;;;;;;;;;;;22.68;24.22;99777.34;5046942;28;19921;-86
2023/01/25 08:01:12;;;;;;;;;;;;;;;23.31;23.08;99765.13;5034572;28;19956;-86
2023/01/25 08:03:38;;;;;;;;;;;;;;;23.38;22.45;99770.81;5040688;28;19928;-86
2023/01/25 08:06:05;;;;;;;;;;;;;;;23.66;22.32;99753.41;5054973;28;19925;-86
2023/01/25 08:08:33;;;;;;;;;;;;;;;24.04;21.83;99762.03;5069761;28;20368;-86
2023/01/25 08:11:00;;;;;;;;;;;;;;;24.26;22.26;99748.94;5075215;28;19923;-86
2023/01/25 08:13:26;;;;;;;;;;;;;;;24.18;21.76;99749.31;5074541;28;20442;-86
2023/01/25 08:15:55;;;;;;;;;;;;;;;23.74;22.02;99743.81;5055989;28;19948;-86
2023/01/25 08:18:21;;;;;;;;;;;;;;;23.29;22.83;99743.09;5034644;28;19917;-86
2023/01/25 08:20:47;;;;;;;;;;;;;;;23.81;23.24;99752.28;5040729;28;19917;-86
2023/01/25 08:23:14;;;;;;;;;;;;;;;24.34;22.12;99746.94;5054971;28;20317;-86
2023/01/25 08:25:40;;;;;;;;;;;;;;;24.60;21.72;99738.19;5054904;28;19921;-86
2023/01/25 08:28:06;;;;;;;;;;;;;;;24.10;22.30;99744.84;5054353;28;20360;-86
2023/01/25 08:30:33;;;;;;;;;;;;;;;24.15;22.65;99742.47;5054613;28;20434;-86
2023/01/25 08:32:59;;;;;;;;;;;;;;;23.78;22.79;99737.03;5044047;28;20008;-86
2023/01/25 08:35:25;;;;;;;;;;;;;;;22.61;24.01;99745.69;5034900;28;20018;-87
2023/01/25 08:37:51;;;;;;;;;;;;;;;21.90;24.87;99746.78;5041282;28;20337;-87
2023/01/25 08:40:17;;;;;;;;;;;;;;;22.05;24.95;99743.00;5054776;28;19997;-87
2023/01/25 08:42:43;;;;;;;;;;;;;;;22.18;24.28;99738.75;5054412;28;20387;-86
2023/01/25 08:45:09;;;;;;;;;;;;;;;22.56;24.22;99751.59;5054341;28;19916;-87
2023/01/25 08:47:35;;;;;;;;;;;;;;;22.52;23.85;99743.13;5054546;28;19921;-87
2023/01/25 08:50:01;;;;;;;;;;;;;;;22.82;23.45;99747.88;5043616;28;19923;-86
2023/01/25 08:52:27;;;;;;;;;;;;;;;21.28;25.58;99740.66;5034310;28;19924;-87
2023/01/25 08:54:53;;;;;;;;;;;;;;;22.55;24.52;99741.56;5041369;28;19917;-87
2023/01/25 08:57:19;;;;;;;;;;;;;;;23.49;24.12;99735.25;5054168;28;19913;-87
2023/01/25 08:59:45;;;;;;;;;;;;;;;24.19;22.82;99736.84;5054067;28;20422;-87
2023/01/25 09:02:11;;;;;;;;;;;;;;;24.31;22.15;99733.69;5036340;28;19921;-87
2023/01/25 09:04:37;;;;;;;;;;;;;;;23.67;22.84;99732.56;5033998;28;19918;-86
2023/01/25 09:07:04;;;;;;;;;;;;;;;23.58;22.95;99732.91;5037672;28;19924;-86
2023/01/25 09:09:30;;;;;;;;;;;;;;;22.83;23.92;99736.28;5054217;28;20272;-86
2023/01/25 09:11:56;;;;;;;;;;;;;;;21.14;26.12;99743.22;5053355;28;20007;-87
2023/01/25 09:14:23;;;;;;;;;;;;;;;17.78;31.16;99753.16;5053958;28;19959;-86
2023/01/25 09:16:49;;;;;;;;;;;;;;;17.06;32.18;99744.91;5050304;28;19920;-86
2023/01/25 09:19:15;;;;;;;;;;;;;;;17.01;32.50;99740.38;5033828;28;19921;-86
2023/01/25 09:21:41;;;;;;;;;;;;;;;17.22;32.37;99737.50;5033875;28;19963;-86
2023/01/25 09:24:07;;;;;;;;;;;;;;;16.17;34.07;99731.91;5034569;28;19918;-86
2023/01/25 09:26:34;;;;;;;;;;;;;;;16.96;32.77;99734.28;5033523;28;19917;-86
2023/01/25 09:29:00;;;;;;;;;;;;;;;17.55;31.62;99734.63;5042318;28;19916;-86
2023/01/25 09:31:26;;;;;;;;;;;;;;;18.05;30.71;99725.75;5053518;28;20380;-86
2023/01/25 09:33:52;;;;;;;;;;;;;;;19.37;29.36;99709.38;5053944;28;20380;-86
2023/01/25 09:36:19;;;;;;;;;;;;;;;20.65;27.64;99706.84;5053899;28;19959;-86
2023/01/25 09:38:45;;;;;;;;;;;;;;;21.80;26.21;99708.25;5053470;28;19917;-86
2023/01/25 09:41:30;;;;;;;;;;;;;;;20.64;27.34;99698.88;5041629;28;19932;-87
2023/01/25 09:44:08;;;;;;;;;;;;;;;19.06;29.54;99699.88;5033989;28;20399;-87
2023/01/25 09:46:42;;;;;;;;;;;;;;;18.90;30.28;99696.31;5046705;28;19923;-86
2023/01/25 09:49:08;;;;;;;;;;;;;;;19.11;30.01;99693.22;5053726;28;19924;-86
2023/01/25 09:51:53;;;;;;;;;;;;;;;18.90;30.42;99685.19;5053305;28;19921;-86
2023/01/25 09:54:19;;;;;;;;;;;;;;;20.08;28.13;99686.59;5053037;28;19923;-86
2023/01/25 09:56:47;;;;;;;;;;;;;;;19.91;28.32;99679.50;5052878;28;19917;-87
2023/01/25 09:59:19;;;;;;;;;;;;;;;20.06;28.74;99677.81;5053528;28;19921;-87
2023/01/25 10:01:48;;;;;;;;;;;;;;;18.54;30.26;99671.53;5053286;28;19978;-87
2023/01/25 10:04:19;;;;;;;;;;;;;;;17.55;32.57;99670.75;5053430;28;19966;-87
2023/01/25 10:06:49;;;;;;;;;;;;;;;18.58;31.03;99662.13;5061736;28;20042;-87
2023/01/25 10:09:34;;;;;;;;;;;;;;;18.33;30.96;99657.84;5073343;28;19959;-87
2023/01/25 10:12:14;;;;;;;;;;;;;;;22.19;25.95;99639.66;5073221;28;20394;-87
2023/01/25 10:14:40;;;;;;;;;;;;;;;22.14;25.22;99644.78;5058020;28;19917;-86
2023/01/25 10:17:12;;;;;;;;;;;;;;;22.48;25.37;99633.16;5033496;28;19925;-87
2023/01/25 10:19:53;;;;;;;;;;;;;;;20.80;27.40;99632.53;5039082;28;19978;-87
2023/01/25 10:22:22;;;;;;;;;;;;;;;21.05;26.82;99633.75;5053275;28;20315;-86
2023/01/25 10:24:48;;;;;;;;;;;;;;;20.46;27.47;99633.56;5052807;28;19967;-86
2023/01/25 10:27:14;;;;;;;;;;;;;;;18.74;29.95;99633.50;5053143;28;19965;-86
2023/01/25 10:29:40;;;;;;;;;;;;;;;20.15;28.10;99622.63;5053193;28;20334;-87
2023/01/25 10:32:12;;;;;;;;;;;;;;;21.81;25.48;99621.22;5041790;28;19925;-86
2023/01/25 10:34:42;;;;;;;;;;;;;;;21.21;26.44;99611.28;5033752;28;19917;-86
2023/01/25 10:37:13;;;;;;;;;;;;;;;22.03;25.26;99597.91;5042980;28;19917;-86
2023/01/25 10:39:43;;;;;;;;;;;;;;;22.19;25.04;99596.88;5054015;28;19917;-86
2023/01/25 10:42:11;;;;;;;;;;;;;;;21.17;27.07;99602.00;5056670;28;19956;-86
2023/01/25 10:44:37;;;;;;;;;;;;;;;22.35;25.28;99595.44;5056938;28;19917;-86
2023/01/25 10:47:15;;;;;;;;;;;;;;;21.94;25.00;99597.44;5056569;28;19913;-86
2023/01/25 10:49:45;;;;;;;;;;;;;;;22.28;24.28;99581.41;5040432;28;20364;-86
2023/01/25 10:52:11;;;;;;;;;;;;;;;21.52;25.95;99584.94;5035533;28;19921;-86
2023/01/25 10:54:37;;;;;;;;;;;;;;;22.78;25.35;99579.81;5048903;28;19921;-86
2023/01/25 10:57:05;;;;;;;;;;;;;;;21.28;26.11;99597.41;5056184;28;19924;-86
2023/01/25 10:59:31;;;;;;;;;;;;;;;20.74;27.21;99589.41;5056626;28;19978;-86
2023/01/25 11:02:17;;;;;;;;;;;;;;;22.44;25.64;99587.53;5056504;28;20271;-86
2023/01/25 11:04:46;;;;;;;;;;;;;;;23.03;24.25;99575.22;5056363;28;19917;-86
2023/01/25 11:07:25;;;;;;;;;;;;;;;22.14;25.74;99572.88;5048778;28;19917;-85
2023/01/25 11:09:51;;;;;;;;;;;;;;;22.81;24.61;99567.84;5056508;28;19917;-86
2023/01/25 11:12:18;;;;;;;;;;;;;;;19.62;28.78;99572.25;5056044;28;19917;-86
2023/01/25 11:14:48;;;;;;;;;;;;;;;19.96;28.22;99576.06;5048322;28;19948;-86
2023/01/25 11:17:32;;;;;;;;;;;;;;;22.11;25.22;99565.25;5036141;28;19940;-86
2023/01/25 11:20:16;;;;;;;;;;;;;;;22.08;25.17;99562.41;5034817;28;19918;-85
2023/01/25 11:23:02;;;;;;;;;;;;;;;22.72;24.00;99564.59;5036548;28;19917;-85
2023/01/25 11:25:32;;;;;;;;;;;;;;;22.65;24.72;99558.94;5035462;28;19945;-86
2023/01/25 11:28:15;;;;;;;;;;;;;;;21.90;25.68;99551.84;5044306;28;19967;-85
2023/01/25 11:30:41;;;;;;;;;;;;;;;22.14;24.68;99541.28;5054631;28;19975;-86
2023/01/25 11:33:11;;;;;;;;;;;;;;;22.38;24.41;99546.31;5035335;28;20421;-85
2023/01/25 11:35:47;;;;;;;;;;;;;;;22.17;24.44;99538.50;5034569;28;20035;-86
2023/01/25 11:38:16;;;;;;;;;;;;;;;22.38;25.00;99532.31;5035538;28;19971;-85
2023/01/25 11:40:45;;;;;;;;;;;;;;;21.50;25.09;99523.81;5036539;28;19917;-86
2023/01/25 11:43:23;;;;;;;;;;;;;;;21.77;24.63;99530.13;5035980;28;19917;-85
2023/01/25 11:46:08;;;;;;;;;;;;;;;22.64;23.41;99521.72;5050501;28;20360;-85
2023/01/25 11:48:42;;;;;;;;;;;;;;;21.54;24.12;99526.66;5055757;28;19917;-86
2023/01/25 11:51:14;;;;;;;;;;;;;;;22.16;23.59;99513.72;5055688;28;20429;-86
2023/01/25 11:53:52;;;;;;;;;;;;;;;23.53;23.67;99513.78;5049359;28;19917;-85
2023/01/25 11:56:24;;;;;;;;;;;;;;;24.23;22.68;99501.91;5036012;28;19925;-85
2023/01/25 11:59:08;;;;;;;;;;;;;;;24.27;22.57;99499.91;5045449;28;20249;-86
2023/01/25 12:01:53;;;;;;;;;;;;;;;23.99;21.73;99490.25;5052500;28;19928;-86
2023/01/25 12:04:37;;;;;;;;;;;;;;;22.21;24.12;99491.00;5055352;28;19916;-86
2023/01/25 12:07:03;;;;;;;;;;;;;;;18.21;28.78;99493.09;5054726;28;19923;-86
2023/01/25 12:09:49;;;;;;;;;;;;;;;17.46;31.00;99497.88;5055032;28;20376;-86
2023/01/25 12:12:15;;;;;;;;;;;;;;;18.08;29.06;99491.59;5053672;28;19921;-86
2023/01/25 12:14:59;;;;;;;;;;;;;;;19.02;28.68;99475.50;5037852;28;20011;-86
2023/01/25 12:17:47;;;;;;;;;;;;;;;18.43;28.83;99476.59;5034966;28;19928;-86
2023/01/25 12:20:13;;;;;;;;;;;;;;;18.92;27.23;99470.53;5053253;28;19916;-86
2023/01/25 12:22:42;;;;;;;;;;;;;;;16.29;32.18;99482.53;5055360;28;19962;-86
2023/01/25 12:25:10;;;;;;;;;;;;;;;17.70;30.59;99473.59;5054655;28;19917;-86
2023/01/25 12:28:09;;;;;;;;;;;;;;;19.47;27.85;99466.47;5054602;28;20411;-86
2023/01/25 12:30:44;;;;;;;;;;;;;;;18.22;28.96;99459.41;5051980;28;19928;-86
2023/01/25 12:33:14;;;;;;;;;;;;;;;18.57;28.59;99463.03;5036688;28;19925;-86
2023/01/25 12:36:09;;;;;;;;;;;;;;;17.10;29.77;99460.84;5054404;28;19921;-86
2023/01/25 12:38:38;;;;;;;;;;;;;;;17.39;29.94;99456.03;5049768;28;19921;-86
2023/01/25 12:41:17;;;;;;;;;;;;;;;20.52;25.16;99451.53;5054946;28;19935;-86
2023/01/25 12:43:54;;;;;;;;;;;;;;;19.83;26.44;99444.47;5054418;28;20455;-86
2023/01/25 12:46:26;;;;;;;;;;;;;;;20.75;25.50;99440.28;5054292;28;19917;-86
2023/01/25 12:48:53;;;;;;;;;;;;;;;22.03;23.73;99424.50;5035282;28;20016;-86
2023/01/25 12:51:21;;;;;;;;;;;;;;;22.34;23.31;99428.72;5034412;28;19918;-86
2023/01/25 12:53:48;;;;;;;;;;;;;;;22.80;23.21;99425.44;5055412;28;19916;-86
2023/01/25 12:56:20;;;;;;;;;;;;;;;22.69;23.03;99425.38;5074420;28;19917;-86